Time;durP1;ratioP1;P1;durP2;ratioP2;P2;SDS_P1;SDS_P2;PMS_P1;PMS_P2;Temp;Humidity;BMP_temperature;BMP_pressure;BME280_temperature;BME280_humidity;BME280_pressure;Samples;Min_cycle;Max_cycle;Signal;HPM_P1;HPM_P2
2023/03/30 00:02:11;;;;;;;5.13;3.77;;;10.20;99.90;;;-141.84;71.62;19744.75;5070388;28;20201;-55
2023/03/30 00:04:41;;;;;;;6.27;3.73;;;10.20;99.90;;;-141.84;71.90;19763.03;5070029;28;20672;-52
2023/03/30 00:07:11;;;;;;;4.47;3.50;;;10.20;99.90;;;-141.84;71.73;19738.66;5069961;28;20229;-52
2023/03/30 00:09:41;;;;;;;6.57;3.60;;;10.20;99.90;;;-141.84;71.08;19756.94;5070004;28;20220;-52
2023/03/30 00:12:09;;;;;;;5.80;3.50;;;10.30;99.90;;;-141.84;71.60;19720.34;5069861;28;20609;-54
2023/03/30 00:14:41;;;;;;;4.43;3.57;;;10.30;99.90;;;-141.84;72.11;19752.88;5070554;28;20205;-53
2023/03/30 00:17:10;;;;;;;4.30;3.67;;;10.30;99.90;;;-141.84;70.88;19754.91;5070462;28;20292;-53
2023/03/30 00:19:38;;;;;;;4.40;4.00;;;10.30;99.90;;;-141.84;71.29;19763.03;5069566;28;20229;-53
2023/03/30 00:22:08;;;;;;;5.17;3.40;;;10.30;99.90;;;-141.84;70.80;19758.97;5069934;28;20234;-52
2023/03/30 00:24:36;;;;;;;3.63;3.20;;;10.40;99.90;;;-141.84;71.46;19761.00;5062243;28;20647;-53
2023/03/30 00:27:04;;;;;;;7.13;3.57;;;10.30;99.90;;;-141.84;70.59;19761.00;5054163;28;20225;-54
2023/03/30 00:29:33;;;;;;;4.23;3.40;;;10.40;99.90;;;-141.84;71.64;19700.03;5054522;28;20208;-53
2023/03/30 00:32:02;;;;;;;4.63;3.90;;;10.30;99.90;;;-141.84;72.11;19714.25;5053614;28;20232;-53
2023/03/30 00:34:30;;;;;;;4.57;3.90;;;10.20;99.90;;;-141.84;72.24;19726.44;5053804;28;20628;-53
2023/03/30 00:36:59;;;;;;;5.03;3.80;;;10.20;99.90;;;-141.84;71.97;19732.53;5053755;28;20244;-54
2023/03/30 00:39:27;;;;;;;4.17;3.57;;;10.20;99.90;;;-141.84;72.58;19722.38;5053515;28;20232;-55
2023/03/30 00:41:55;;;;;;;3.80;3.20;;;10.10;99.90;;;-141.84;73.21;19700.03;5065711;28;20208;-53
2023/03/30 00:45:08;;;;;;;7.50;3.83;;;10.00;99.90;;;-141.84;72.78;19706.13;5054144;28;20616;-50
2023/03/30 00:47:42;;;;;;;4.77;3.53;;;10.00;99.90;;;-141.84;73.42;19708.16;5052989;28;20282;-52
2023/03/30 00:50:12;;;;;;;3.80;3.50;;;10.00;99.90;;;-141.84;73.71;19704.09;5069997;28;20189;-57
2023/03/30 00:52:43;;;;;;;6.47;3.30;;;9.90;99.90;;;-141.84;73.83;19665.47;5073168;28;20231;-53
2023/03/30 00:55:12;;;;;;;4.87;3.60;;;9.90;99.90;;;-141.84;73.74;19665.47;5073367;28;20232;-55
2023/03/30 00:57:44;;;;;;;4.60;3.70;;;9.90;99.90;;;-141.84;73.97;19698.00;5073100;28;20716;-53
2023/03/30 01:00:14;;;;;;;4.57;3.30;;;9.90;99.90;;;-141.84;74.15;19691.91;5073736;28;20232;-56
2023/03/30 01:02:52;;;;;;;4.10;3.70;;;9.90;99.90;;;-141.84;74.08;19679.72;5073357;28;20221;-51
2023/03/30 01:05:22;;;;;;;4.50;3.90;;;9.90;99.90;;;-141.84;73.31;19736.59;5074276;28;20192;-52
2023/03/30 01:07:52;;;;;;;4.43;3.57;;;9.90;99.90;;;-141.84;73.77;19681.75;5072918;28;20230;-53
2023/03/30 01:10:21;;;;;;;4.60;3.50;;;9.90;99.90;;;-141.84;73.63;19706.13;5072876;28;20232;-50
2023/03/30 01:12:50;;;;;;;3.57;3.20;;;9.90;99.90;;;-141.84;73.96;19704.09;5072986;28;20229;-52
2023/03/30 01:15:19;;;;;;;5.17;4.03;;;9.90;99.90;;;-141.84;73.23;19710.19;5073063;28;20228;-52
2023/03/30 01:18:18;;;;;;;4.47;3.47;;;10.00;99.90;;;-141.84;73.49;19730.50;5072892;28;20212;-54
2023/03/30 01:21:31;;;;;;;5.80;4.27;;;10.00;99.90;;;-141.84;73.67;19714.25;5073063;28;20264;-52
2023/03/30 01:25:03;;;;;;;5.40;3.20;;;10.00;99.90;;;-141.84;73.73;19712.22;5041815;28;20228;-52
2023/03/30 01:28:08;;;;;;;4.00;3.40;;;10.00;99.90;;;-141.84;73.94;19693.94;5013147;28;20224;-54
2023/03/30 01:31:04;;;;;;;5.73;3.67;;;10.00;99.90;;;-141.84;74.00;19671.56;5072627;28;20707;-51
2023/03/30 01:34:12;;;;;;;5.80;3.10;;;10.00;99.90;;;-141.84;73.69;19669.53;5072368;28;20220;-53
2023/03/30 01:37:15;;;;;;;3.70;3.40;;;10.00;99.90;;;-141.84;73.99;19712.22;5072561;28;20236;-52
2023/03/30 01:39:58;;;;;;;6.13;3.67;;;10.00;99.90;;;-141.84;72.13;19730.50;5069868;28;20228;-55
2023/03/30 01:42:38;;;;;;;5.47;3.40;;;10.10;99.90;;;-141.84;72.25;19736.59;5065757;28;20696;-55
2023/03/30 01:45:15;;;;;;;4.77;3.20;;;10.20;99.90;;;-141.84;72.83;19702.06;5054062;28;20713;-57
2023/03/30 01:47:56;;;;;;;4.20;3.23;;;10.20;99.90;;;-141.84;73.21;19718.31;5071980;28;20238;-54
2023/03/30 01:50:31;;;;;;;4.53;3.30;;;10.10;99.90;;;-141.84;73.76;19691.91;5072589;28;20185;-54
2023/03/30 01:53:09;;;;;;;3.83;3.17;;;10.10;99.90;;;-141.84;73.68;19700.03;5060559;28;20224;-53
2023/03/30 01:55:45;;;;;;;3.83;3.20;;;10.10;99.90;;;-141.84;72.32;19752.88;5072217;28;20230;-53
2023/03/30 01:58:22;;;;;;;5.30;3.30;;;10.20;99.90;;;-141.84;72.05;19720.34;5072440;28;20239;-52
2023/03/30 02:00:52;;;;;;;4.67;3.10;;;10.20;99.90;;;-141.84;72.61;19700.03;5072178;28;20649;-54
2023/03/30 02:03:26;;;;;;;4.23;3.17;;;10.20;99.90;;;-141.84;73.35;19708.16;5071858;28;20739;-53
2023/03/30 02:06:02;;;;;;;4.60;3.50;;;10.10;99.90;;;-141.84;73.34;19726.44;5072178;28;20191;-54
2023/03/30 02:08:35;;;;;;;4.80;3.50;;;10.10;99.90;;;-141.84;73.21;19714.25;5072486;28;20197;-55
2023/03/30 02:11:06;;;;;;;3.50;3.17;;;10.10;99.90;;;-141.84;73.29;19712.22;5071984;28;20588;-52
2023/03/30 02:13:37;;;;;;;5.23;3.80;;;10.10;99.90;;;-141.84;73.43;19679.72;5071836;28;20229;-55
2023/03/30 02:16:15;;;;;;;4.37;3.03;;;10.10;99.90;;;-141.84;73.50;19675.63;5072089;28;20221;-53
2023/03/30 02:18:43;;;;;;;5.50;3.70;;;10.10;99.90;;;-141.84;73.23;19704.09;5071839;28;20216;-54
2023/03/30 02:21:12;;;;;;;3.77;3.30;;;10.10;99.90;;;-141.84;73.69;19691.91;5072043;28;20244;-53
2023/03/30 02:23:46;;;;;;;3.97;3.30;;;10.10;99.90;;;-141.84;74.20;19683.78;5067954;28;20288;-53
2023/03/30 02:26:16;;;;;;;3.20;2.90;;;10.00;99.90;;;-141.84;74.31;19661.41;5052292;28;20192;-53
2023/03/30 02:28:45;;;;;;;6.30;3.37;;;10.00;99.90;;;-141.84;74.36;19659.38;5051686;28;20222;-54
2023/03/30 02:31:16;;;;;;;4.17;3.10;;;10.00;99.90;;;-141.84;73.83;19720.34;5051747;28;20226;-50
2023/03/30 02:34:06;;;;;;;4.07;2.90;;;10.00;99.90;;;-141.84;73.25;19724.41;5059892;28;20220;-53
2023/03/30 02:37:18;;;;;;;3.50;3.20;;;10.10;99.90;;;-141.84;74.07;19724.41;5051698;28;20291;-55
2023/03/30 02:40:11;;;;;;;4.70;3.30;;;10.10;99.90;;;-141.84;73.81;19687.84;5044918;28;20221;-54
2023/03/30 02:43:06;;;;;;;5.27;3.33;;;10.10;99.90;;;-141.84;74.24;19710.19;5051457;28;20228;-55
2023/03/30 02:45:50;;;;;;;4.53;3.27;;;10.10;99.90;;;-141.84;74.63;19687.84;5056126;28;20224;-53
2023/03/30 02:48:34;;;;;;;3.90;3.10;;;10.00;99.90;;;-141.84;74.49;19671.56;5070719;28;20224;-55
2023/03/30 02:51:25;;;;;;;3.67;3.37;;;10.00;99.90;;;-141.84;74.43;19708.16;5069942;28;20216;-54
2023/03/30 02:54:01;;;;;;;6.07;3.50;;;10.00;99.90;;;-141.84;74.73;19691.91;5069546;28;20204;-54
2023/03/30 02:56:40;;;;;;;5.40;3.37;;;10.00;99.90;;;-141.84;75.31;19663.44;5071223;28;20184;-56
2023/03/30 02:59:17;;;;;;;7.97;3.87;;;10.00;99.90;;;-141.84;75.79;19663.44;5070735;28;20247;-54
2023/03/30 03:01:52;;;;;;;5.27;3.70;;;9.90;99.90;;;-141.84;76.24;19659.38;5070507;28;20715;-53
2023/03/30 03:04:23;;;;;;;4.93;3.47;;;9.80;99.90;;;-141.84;76.49;19659.38;5070722;28;20624;-52
2023/03/30 03:06:54;;;;;;;4.93;3.50;;;9.70;99.90;;;-141.84;76.42;19635.00;5070855;28;20708;-53
2023/03/30 03:09:24;;;;;;;3.60;2.93;;;9.80;99.90;;;-141.84;76.10;19655.31;5050421;28;20303;-54
2023/03/30 03:11:53;;;;;;;4.57;3.00;;;9.80;99.90;;;-141.84;76.20;19669.53;5055090;28;20543;-56
2023/03/30 03:14:25;;;;;;;5.13;3.20;;;9.80;99.90;;;-141.84;75.72;19700.03;5050999;28;20781;-56
2023/03/30 03:16:54;;;;;;;6.53;3.53;;;9.80;99.90;;;-141.84;75.86;19667.50;5050344;28;20229;-53
2023/03/30 03:19:22;;;;;;;7.40;3.33;;;9.80;99.90;;;-141.84;75.46;19698.00;5050616;28;20236;-54
2023/03/30 03:21:51;;;;;;;4.90;3.00;;;9.90;99.90;;;-141.84;76.02;19657.34;5050835;28;20243;-52
2023/03/30 03:24:19;;;;;;;6.53;3.60;;;9.80;99.90;;;-141.84;76.64;19635.00;5059171;28;20231;-56
2023/03/30 03:26:47;;;;;;;5.07;3.60;;;9.80;99.90;;;-141.84;77.01;19667.50;5071130;28;20208;-53
2023/03/30 03:29:16;;;;;;;5.60;3.33;;;9.70;99.90;;;-141.84;74.89;19691.91;5071456;28;20200;-52
2023/03/30 03:31:46;;;;;;;4.77;3.50;;;9.80;99.90;;;-141.84;75.29;19659.38;5074855;28;20228;-55
2023/03/30 03:34:14;;;;;;;5.40;3.40;;;9.90;99.90;;;-141.84;76.02;19659.38;5070515;28;20221;-56
2023/03/30 03:36:42;;;;;;;3.40;3.10;;;9.80;99.90;;;-141.84;76.78;19637.03;5070701;28;20232;-56
2023/03/30 03:39:10;;;;;;;5.23;3.33;;;9.70;99.90;;;-141.84;76.74;19663.44;5070588;28;20217;-52
2023/03/30 03:41:39;;;;;;;6.47;3.13;;;9.70;99.90;;;-141.84;76.95;19632.97;5070232;28;20220;-55
2023/03/30 03:44:07;;;;;;;3.90;3.30;;;9.70;99.90;;;-141.84;76.56;19641.09;5051799;28;20201;-56
2023/03/30 03:46:35;;;;;;;5.80;3.10;;;9.70;99.90;;;-141.84;76.42;19649.22;5063784;28;20937;-53
2023/03/30 03:49:05;;;;;;;4.00;3.10;;;9.70;99.90;;;-141.84;76.76;19639.06;5070318;28;20252;-54
2023/03/30 03:51:34;;;;;;;4.57;3.23;;;9.70;99.90;;;-141.84;76.81;19632.97;5069889;28;20221;-52
2023/03/30 03:54:03;;;;;;;4.23;3.20;;;9.70;99.90;;;-141.84;76.88;19671.56;5070164;28;20235;-51
2023/03/30 03:56:32;;;;;;;4.83;3.57;;;9.70;99.90;;;-141.84;76.28;19659.38;5070533;28;20208;-52
2023/03/30 03:59:02;;;;;;;4.33;3.30;;;9.70;99.90;;;-141.84;76.19;19626.88;5069216;28;20236;-54
2023/03/30 04:01:30;;;;;;;4.33;3.20;;;9.70;99.90;;;-141.84;77.00;19596.38;5070035;28;20228;-55
2023/03/30 04:03:58;;;;;;;4.83;3.37;;;9.60;99.90;;;-141.84;77.53;19610.59;5070105;28;20224;-55
2023/03/30 04:06:28;;;;;;;5.33;3.50;;;9.60;99.90;;;-141.84;77.24;19651.25;5070014;28;20228;-56
2023/03/30 04:08:56;;;;;;;6.80;3.47;;;9.60;99.90;;;-141.84;75.41;19698.00;5070151;28;20231;-54
2023/03/30 04:11:25;;;;;;;4.50;3.30;;;9.80;99.90;;;-141.84;75.06;19641.09;5064152;28;20649;-52
2023/03/30 04:13:53;;;;;;;3.87;3.00;;;9.90;99.90;;;-141.84;74.37;19704.09;5049736;28;20229;-57
2023/03/30 04:16:22;;;;;;;4.30;3.27;;;9.90;99.90;;;-141.84;74.17;19712.22;5049655;28;20306;-50
2023/03/30 04:18:50;;;;;;;4.33;3.40;;;10.00;99.90;;;-141.84;73.78;19720.34;5050164;28;20327;-52
2023/03/30 04:21:19;;;;;;;5.47;3.43;;;10.00;99.90;;;-141.84;72.75;19706.13;5049500;28;20233;-55
2023/03/30 04:23:48;;;;;;;4.90;3.43;;;10.20;99.90;;;-141.84;73.19;19695.97;5053927;28;20262;-53
2023/03/30 04:26:17;;;;;;;5.83;3.20;;;10.20;99.90;;;-141.84;74.10;19673.59;5070084;28;20196;-54
2023/03/30 04:28:45;;;;;;;6.13;3.40;;;10.10;99.90;;;-141.84;72.84;19700.03;5069564;28;20239;-54
2023/03/30 04:31:14;;;;;;;3.27;2.57;;;10.20;99.90;;;-141.84;72.04;19720.34;5069345;28;20221;-51
2023/03/30 04:33:49;;;;;;;5.80;3.07;;;10.40;99.90;;;-141.84;71.45;19761.00;5069749;28;20286;-57
2023/03/30 04:36:19;;;;;;;9.83;5.13;;;10.40;99.90;;;-141.84;71.84;19738.66;5069849;28;20246;-50
2023/03/30 04:38:57;;;;;;;5.17;3.30;;;10.50;99.90;;;-141.84;71.64;19714.25;5069817;28;20219;-52
2023/03/30 04:41:32;;;;;;;3.53;2.70;;;10.50;99.90;;;-141.84;72.81;19714.25;5069748;28;20211;-53
2023/03/30 04:44:03;;;;;;;6.07;3.10;;;10.40;99.90;;;-141.84;72.76;19736.59;5051709;28;20221;-51
2023/03/30 04:46:31;;;;;;;3.77;3.00;;;10.30;99.90;;;-141.84;72.98;19728.47;5062215;28;20232;-55
2023/03/30 04:49:00;;;;;;;5.80;2.90;;;10.30;99.90;;;-141.84;73.10;19698.00;5069383;28;20719;-52
2023/03/30 04:51:28;;;;;;;6.37;2.90;;;10.30;99.90;;;-141.84;72.21;19728.47;5069229;28;20225;-54
2023/03/30 04:53:58;;;;;;;4.17;3.10;;;10.30;99.90;;;-141.84;70.68;19787.41;5069875;28;20201;-53
2023/03/30 04:56:26;;;;;;;4.97;3.10;;;10.40;99.90;;;-141.84;71.36;19756.94;5069720;28;20211;-52
2023/03/30 04:58:55;;;;;;;5.33;3.10;;;10.40;99.90;;;-141.84;71.81;19714.25;5069551;28;20224;-51
2023/03/30 05:01:23;;;;;;;4.43;3.43;;;10.40;99.90;;;-141.84;72.06;19698.00;5053339;28;20583;-52
2023/03/30 05:03:51;;;;;;;3.53;3.20;;;10.40;99.90;;;-141.84;71.01;19748.81;5050185;28;20220;-54
2023/03/30 05:06:20;;;;;;;6.17;2.83;;;10.40;99.90;;;-141.84;72.05;19732.53;5069375;28;20255;-52
2023/03/30 05:08:48;;;;;;;3.13;2.63;;;10.40;99.90;;;-141.84;71.80;19720.34;5069926;28;20208;-53
2023/03/30 05:11:18;;;;;;;3.93;2.60;;;10.40;99.90;;;-141.84;71.83;19736.59;5068648;28;20189;-53
2023/03/30 05:13:46;;;;;;;5.37;2.77;;;10.40;99.90;;;-141.84;70.71;19740.69;5052603;28;20721;-53
2023/03/30 05:16:14;;;;;;;4.13;2.77;;;10.50;99.90;;;-141.84;71.06;19734.56;5052910;28;20245;-55
2023/03/30 05:18:42;;;;;;;4.80;2.87;;;10.50;99.90;;;-141.84;71.08;19769.13;5052782;28;20769;-55
2023/03/30 05:21:10;;;;;;;6.70;3.30;;;10.50;99.90;;;-141.84;69.96;19771.16;5052498;28;20252;-53
2023/03/30 05:23:39;;;;;;;4.33;2.60;;;10.60;99.90;;;-141.84;68.85;19803.69;5071036;28;20704;-55
2023/03/30 05:26:08;;;;;;;7.70;3.50;;;10.60;99.90;;;-141.84;68.31;19779.28;5061428;28;20213;-53
2023/03/30 05:28:38;;;;;;;4.90;2.53;;;10.80;99.90;;;-141.84;68.53;19779.28;5072416;28;20224;-54
2023/03/30 05:31:06;;;;;;;6.77;3.23;;;10.80;99.90;;;-141.84;68.31;19795.53;5072860;28;20248;-54
2023/03/30 05:33:35;;;;;;;6.00;3.13;;;10.80;99.90;;;-141.84;69.24;19773.19;5071424;28;20782;-53
2023/03/30 05:36:04;;;;;;;5.73;2.90;;;10.80;99.90;;;-141.84;69.39;19758.97;5072440;28;20224;-55
2023/03/30 05:38:33;;;;;;;6.27;3.20;;;10.80;99.90;;;-141.84;69.48;19785.38;5072888;28;20296;-56
2023/03/30 05:41:01;;;;;;;9.13;3.23;;;10.80;99.90;;;-141.84;69.19;19775.22;5071863;28;20229;-55
2023/03/30 05:43:29;;;;;;;7.30;3.53;;;10.80;99.90;;;-141.84;68.75;19795.53;5058285;28;20221;-54
2023/03/30 05:46:00;;;;;;;4.30;2.87;;;10.80;99.90;;;-141.84;69.55;19763.03;5060450;28;20274;-55
2023/03/30 05:48:28;;;;;;;4.13;2.60;;;10.80;99.90;;;-141.84;69.70;19805.72;5071610;28;20227;-55
2023/03/30 05:50:57;;;;;;;3.63;2.40;;;10.80;99.90;;;-141.84;69.77;19775.22;5072203;28;20706;-54
2023/03/30 05:53:28;;;;;;;4.23;2.27;;;10.70;99.90;;;-141.84;69.94;19769.13;5072858;28;20192;-53
2023/03/30 05:55:57;;;;;;;7.83;2.93;;;10.70;99.90;;;-141.84;69.36;19789.44;5070023;28;20228;-53
2023/03/30 05:58:26;;;;;;;6.07;2.67;;;10.80;99.90;;;-141.84;69.20;19769.13;5052066;28;20225;-53
2023/03/30 06:00:59;;;;;;;5.00;2.80;;;10.80;99.90;;;-141.84;68.58;19793.50;5059435;28;20228;-52
2023/03/30 06:03:27;;;;;;;6.83;3.37;;;10.80;99.90;;;-141.84;68.68;19805.72;5071799;28;20221;-53
2023/03/30 06:05:56;;;;;;;5.90;3.00;;;10.80;99.90;;;-141.84;68.62;19803.69;5071768;28;20205;-53
2023/03/30 06:08:25;;;;;;;5.07;2.70;;;10.90;99.90;;;-141.84;68.97;19752.88;5067572;28;20200;-54
2023/03/30 06:10:55;;;;;;;3.87;2.40;;;10.90;99.90;;;-141.84;68.79;19799.63;5061691;28;20735;-55
2023/03/30 06:13:24;;;;;;;4.10;2.53;;;10.90;99.90;;;-141.84;69.06;19777.25;5070189;28;20232;-55
2023/03/30 06:15:52;;;;;;;6.17;2.70;;;10.90;99.90;;;-141.84;68.89;19748.81;5070019;28;20233;-55
2023/03/30 06:18:21;;;;;;;6.30;3.43;;;10.90;99.90;;;-141.84;68.75;19787.41;5070578;28;20236;-56
2023/03/30 06:20:50;;;;;;;5.87;2.80;;;10.90;99.90;;;-141.84;67.78;19828.06;5073641;28;20200;-52
2023/03/30 06:23:18;;;;;;;4.47;2.90;;;11.00;99.90;;;-141.84;67.78;19809.78;5071509;28;20569;-56
2023/03/30 06:25:51;;;;;;;5.27;2.67;;;11.10;99.90;;;-141.84;66.54;19840.25;5071631;28;20658;-55
2023/03/30 06:28:20;;;;;;;5.70;3.07;;;11.20;99.90;;;-141.84;67.12;19834.16;5071923;28;20316;-53
2023/03/30 06:30:49;;;;;;;4.20;2.57;;;11.30;99.90;;;-141.84;67.35;19838.22;5071543;28;20224;-53
2023/03/30 06:33:18;;;;;;;7.50;2.90;;;11.30;99.90;;;-141.84;66.38;19895.13;5071390;28;20231;-52
2023/03/30 06:35:51;;;;;;;8.13;2.90;;;11.40;99.90;;;-141.84;65.91;19895.13;5071156;28;20204;-54
2023/03/30 06:38:22;;;;;;;6.70;3.30;;;11.40;99.90;;;-141.84;65.44;19891.06;5071627;28;20715;-55
2023/03/30 06:40:50;;;;;;;9.07;2.97;;;11.50;99.90;;;-141.84;65.34;19899.19;5070966;28;20239;-53
2023/03/30 06:43:21;;;;;;;5.30;3.10;;;11.60;99.90;;;-141.84;65.53;19878.88;5058686;28;20252;-54
2023/03/30 06:45:50;;;;;;;7.27;2.90;;;11.70;99.90;;;-141.84;64.73;19945.94;5058773;28;20220;-53
2023/03/30 06:48:21;;;;;;;8.60;2.73;;;11.70;99.90;;;-141.84;64.13;19929.69;5070641;28;20311;-52
2023/03/30 06:50:52;;;;;;;4.63;2.57;;;11.80;99.90;;;-141.84;63.85;19964.25;5071120;28;20216;-54
2023/03/30 06:53:22;;;;;;;7.17;3.30;;;11.90;99.90;;;-141.84;63.59;19962.19;5071365;28;20296;-54
2023/03/30 06:55:52;;;;;;;5.13;2.70;;;12.10;99.90;;;-141.84;63.72;19964.25;5070676;28;20224;-55
2023/03/30 06:58:20;;;;;;;6.97;2.67;;;12.10;99.90;;;-141.84;63.31;19956.09;5070913;28;20225;-54
2023/03/30 07:00:48;;;;;;;5.73;2.40;;;12.20;99.90;;;-141.84;62.56;19994.72;5071065;28;20222;-53
2023/03/30 07:03:18;;;;;;;6.33;2.47;;;12.40;99.90;;;-141.84;62.81;20008.94;5070646;28;20270;-50
2023/03/30 07:05:48;;;;;;;6.67;2.60;;;12.50;99.90;;;-141.84;62.15;20104.47;5070818;28;20204;-54
2023/03/30 07:08:18;;;;;;;7.07;2.17;;;12.70;99.90;;;-141.84;61.80;20120.75;5070941;28;20228;-56
2023/03/30 07:10:48;;;;;;;7.83;2.70;;;13.00;99.90;;;-141.84;59.95;20210.16;5069650;28;20229;-56
2023/03/30 07:13:17;;;;;;;4.80;2.53;;;13.40;99.90;;;-141.84;59.64;20250.81;5050634;28;20221;-56
2023/03/30 07:15:46;;;;;;;6.50;3.03;;;13.60;99.90;;;-141.84;59.48;20250.81;5061152;28;20220;-53
2023/03/30 07:18:15;;;;;;;6.78;2.78;;;13.80;99.90;;;-141.84;59.82;20218.31;5070512;28;20224;-56
2023/03/30 07:20:45;;;;;;;5.03;2.90;;;13.80;99.90;;;-141.84;59.39;20230.50;5070807;28;20219;-54
2023/03/30 07:23:15;;;;;;;4.68;2.75;;;13.90;99.90;;;-141.84;59.10;20301.63;5070727;28;20622;-57
2023/03/30 07:25:46;;;;;;;5.55;2.72;;;14.10;99.90;;;-141.84;59.20;20287.41;5050387;28;20229;-57
2023/03/30 07:28:15;;;;;;;7.35;2.60;;;14.10;99.90;;;-141.84;58.95;20307.72;5050548;28;20229;-54
2023/03/30 07:30:43;;;;;;;3.67;2.20;;;14.30;99.90;;;-141.84;58.56;20336.19;5060755;28;20595;-58
2023/03/30 07:33:13;;;;;;;4.30;2.67;;;14.50;99.90;;;-141.84;58.52;20350.41;5070085;28;20235;-56
2023/03/30 07:35:44;;;;;;;3.90;2.70;;;14.60;99.90;;;-141.84;58.80;20334.16;5070676;28;20199;-55
2023/03/30 07:38:13;;;;;;;7.55;2.90;;;14.70;99.90;;;-141.84;59.03;20358.56;5070823;28;20595;-56
2023/03/30 07:40:41;;;;;;;4.63;2.65;;;14.80;99.90;;;-141.84;59.08;20387.00;5070267;28;20303;-53
2023/03/30 07:43:11;;;;;;;8.32;2.88;;;14.80;99.90;;;-141.84;59.63;20338.22;5060781;28;20244;-55
2023/03/30 07:45:39;;;;;;;5.97;2.70;;;14.80;99.90;;;-141.84;60.24;20326.03;5056918;28;20224;-56
2023/03/30 07:48:07;;;;;;;4.13;2.58;;;14.70;99.90;;;-141.84;61.47;20299.59;5070265;28;20720;-58
2023/03/30 07:50:35;;;;;;;6.47;2.78;;;14.60;99.90;;;-141.84;61.47;20275.22;5050939;28;20209;-55
2023/03/30 07:53:04;;;;;;;6.65;2.67;;;14.50;99.90;;;-141.84;60.68;20328.06;5059676;28;20216;-54
2023/03/30 07:55:32;;;;;;;4.95;3.10;;;14.60;99.90;;;-141.84;60.52;20374.81;5069954;28;20291;-51
2023/03/30 07:58:00;;;;;;;6.43;3.17;;;14.70;99.90;;;-141.84;59.85;20413.44;5070351;28;20224;-53
2023/03/30 08:00:31;;;;;;;4.20;2.67;;;14.90;99.90;;;-141.84;59.67;20399.19;5070295;28;20220;-56
2023/03/30 08:02:59;;;;;;;4.53;2.67;;;15.00;99.90;;;-141.84;59.89;20399.19;5069801;28;20715;-57
2023/03/30 08:05:28;;;;;;;4.82;2.80;;;15.10;99.90;;;-141.84;59.49;20452.06;5070623;28;20726;-56
2023/03/30 08:07:56;;;;;;;6.05;3.05;;;15.20;99.90;;;-141.84;59.49;20397.16;5069826;28;20239;-54
2023/03/30 08:10:24;;;;;;;6.20;2.88;;;15.20;99.90;;;-141.84;60.04;20397.16;5069783;28;20234;-54
2023/03/30 08:12:52;;;;;;;5.93;3.35;;;15.20;99.90;;;-141.84;59.96;20405.31;5074310;28;20228;-57
2023/03/30 08:15:21;;;;;;;6.07;3.05;;;15.20;99.90;;;-141.84;60.92;20338.22;5069824;28;20682;-54
2023/03/30 08:17:50;;;;;;;5.80;2.70;;;15.00;99.90;;;-141.84;60.60;20380.91;5069922;28;20299;-55
2023/03/30 08:20:19;;;;;;;5.20;2.92;;;15.00;99.90;;;-141.84;60.36;20344.31;5070641;28;20211;-57
2023/03/30 08:22:48;;;;;;;4.25;3.38;;;15.00;99.90;;;-141.84;61.18;20324.00;5069650;28;20231;-55
2023/03/30 08:25:16;;;;;;;9.07;3.28;;;14.80;99.90;;;-141.84;61.79;20281.31;5069894;28;20243;-56
2023/03/30 08:27:44;;;;;;;5.63;3.20;;;14.70;99.90;;;-141.84;61.83;20291.47;5069970;28;20220;-55
2023/03/30 08:30:15;;;;;;;5.65;2.83;;;14.60;99.90;;;-141.84;61.55;20287.41;5070095;28;20239;-56
2023/03/30 08:32:43;;;;;;;6.32;2.83;;;14.60;99.90;;;-141.84;61.56;20285.38;5070119;28;20205;-56
2023/03/30 08:35:13;;;;;;;7.25;3.20;;;14.60;99.90;;;-141.84;62.14;20273.19;5070368;28;20235;-57
2023/03/30 08:37:41;;;;;;;6.18;3.45;;;14.50;99.90;;;-141.84;62.25;20256.91;5069628;28;20252;-56
2023/03/30 08:40:12;;;;;;;5.00;2.88;;;14.40;99.90;;;-141.84;63.12;20267.09;5069488;28;20227;-57
2023/03/30 08:43:33;;;;;;;7.32;3.50;;;14.30;99.90;;;-141.84;63.36;20269.13;5062206;28;20251;-55
2023/03/30 08:46:02;;;;;;;5.05;3.00;;;14.20;99.90;;;-141.84;63.59;20244.72;5033023;28;20231;-56
2023/03/30 08:48:36;;;;;;;7.82;3.40;;;14.10;99.90;;;-141.84;63.64;20212.19;5073518;28;20235;-55
2023/03/30 08:51:21;;;;;;;6.53;3.25;;;14.10;99.90;;;-141.84;63.20;20208.13;5073398;28;20252;-56
2023/03/30 08:53:55;;;;;;;6.40;3.47;;;14.00;99.90;;;-141.84;63.83;20202.03;5073337;28;20227;-55
2023/03/30 08:56:29;;;;;;;8.38;3.30;;;13.90;99.90;;;-141.84;64.79;20197.97;5073671;28;20189;-56
2023/03/30 08:59:18;;;;;;;5.30;3.30;;;13.80;99.90;;;-141.84;64.60;20157.31;5073279;28;20237;-52
2023/03/30 09:01:55;;;;;;;7.43;3.65;;;13.70;99.90;;;-141.84;65.28;20139.03;5072842;28;20228;-55
2023/03/30 09:04:39;;;;;;;7.72;3.78;;;13.70;99.90;;;-141.84;65.67;20143.09;5073081;28;20259;-55
2023/03/30 09:07:17;;;;;;;7.55;3.58;;;13.60;99.90;;;-141.84;65.33;20151.22;5074085;28;20220;-55
2023/03/30 09:09:50;;;;;;;5.35;3.50;;;13.60;99.90;;;-141.84;64.90;20132.94;5074643;28;20221;-53
2023/03/30 09:12:29;;;;;;;4.88;3.25;;;13.60;99.90;;;-141.84;65.61;20143.09;5059509;28;20233;-56
2023/03/30 09:15:03;;;;;;;5.97;3.10;;;13.60;99.90;;;-141.84;64.33;20159.34;5052541;28;20197;-55
2023/03/30 09:17:37;;;;;;;5.65;3.25;;;13.70;99.90;;;-141.84;64.71;20161.38;5052923;28;20184;-56
2023/03/30 09:20:13;;;;;;;7.97;3.05;;;13.70;99.90;;;-141.84;64.40;20153.25;5053041;28;20334;-55
2023/03/30 09:22:45;;;;;;;7.22;3.17;;;13.70;99.90;;;-141.84;63.71;20187.81;5052467;28;20240;-55
2023/03/30 09:25:18;;;;;;;5.25;3.10;;;13.90;99.90;;;-141.84;63.71;20183.75;5068839;28;20231;-54
2023/03/30 09:27:58;;;;;;;6.32;3.58;;;14.00;99.90;;;-141.84;63.19;20240.66;5072789;28;20704;-55
2023/03/30 09:30:33;;;;;;;9.40;3.50;;;14.10;99.90;;;-141.84;62.97;20244.72;5072319;28;20224;-57
2023/03/30 09:33:16;;;;;;;7.00;3.20;;;14.20;99.90;;;-141.84;61.89;20256.91;5073014;28;20216;-57
2023/03/30 09:36:03;;;;;;;8.88;3.63;;;14.30;99.90;;;-141.84;62.09;20250.81;5072608;28;20189;-56
2023/03/30 09:38:36;;;;;;;6.50;3.03;;;14.40;99.90;;;-141.84;61.32;20301.63;5073283;28;20197;-55
2023/03/30 09:41:24;;;;;;;5.97;3.28;;;14.50;99.90;;;-141.84;61.50;20250.81;5072210;28;20212;-56
2023/03/30 09:43:54;;;;;;;5.85;3.30;;;14.50;99.90;;;-141.84;62.44;20269.13;5055275;28;20237;-57
2023/03/30 09:46:22;;;;;;;7.10;3.63;;;14.40;99.90;;;-141.84;62.35;20210.16;5064231;28;20655;-57
2023/03/30 09:48:51;;;;;;;7.53;3.50;;;14.40;99.90;;;-141.84;62.51;20252.84;5072356;28;20734;-56
2023/03/30 09:51:23;;;;;;;8.55;3.40;;;14.40;99.90;;;-141.84;62.16;20289.44;5072210;28;20217;-56
2023/03/30 09:54:00;;;;;;;9.32;3.55;;;14.40;99.90;;;-141.84;62.21;20285.38;5072245;28;21104;-56
2023/03/30 09:56:35;;;;;;;7.80;3.13;;;14.50;99.90;;;-141.84;61.96;20297.56;5072764;28;20219;-56
2023/03/30 09:59:22;;;;;;;5.28;3.15;;;14.50;99.90;;;-141.84;62.22;20313.84;5072924;28;20196;-56
2023/03/30 10:01:50;;;;;;;6.80;2.72;;;14.60;99.90;;;-141.84;62.97;20267.09;5071868;28;20236;-55
2023/03/30 10:04:18;;;;;;;8.65;3.08;;;14.60;99.90;;;-141.84;63.45;20277.25;5071829;28;20236;-53
2023/03/30 10:06:50;;;;;;;7.38;3.42;;;14.50;99.90;;;-141.84;62.96;20336.19;5071853;28;20229;-56
2023/03/30 10:09:23;;;;;;;8.85;3.30;;;14.70;99.90;;;-141.84;62.86;20332.13;5072293;28;20228;-53
2023/03/30 10:11:54;;;;;;;6.50;3.10;;;14.70;99.90;;;-141.84;62.02;20380.91;5071535;28;20196;-56
2023/03/30 10:14:32;;;;;;;6.20;2.85;;;15.00;99.90;;;-141.84;60.86;20439.84;5072758;28;20239;-55
2023/03/30 10:17:01;;;;;;;5.45;3.15;;;15.20;99.90;;;-141.84;60.33;20484.56;5071589;28;20228;-57
2023/03/30 10:19:32;;;;;;;4.97;2.67;;;15.50;99.90;;;-141.84;60.09;20458.16;5071583;28;20232;-56
2023/03/30 10:22:16;;;;;;;8.38;2.83;;;15.70;99.90;;;-141.84;59.79;20533.34;5071718;28;20224;-57
2023/03/30 10:24:56;;;;;;;8.38;3.00;;;15.80;99.90;;;-141.84;59.50;20527.25;5071483;28;20239;-56
2023/03/30 10:27:33;;;;;;;6.28;3.25;;;16.00;99.90;;;-141.84;58.68;20610.59;5071584;28;20243;-53
2023/03/30 10:30:12;;;;;;;6.13;3.13;;;16.10;99.90;;;-141.84;57.94;20590.28;5071803;28;20274;-54
2023/03/30 10:32:45;;;;;;;6.80;3.42;;;16.30;99.90;;;-141.84;57.29;20632.97;5071366;28;20196;-56